createdAt,value
2023-03-07T00:03:48.306Z,5.40
2023-03-07T00:08:56.205Z,5.40
2023-03-07T00:13:58.507Z,5.40
2023-03-07T00:19:00.818Z,5.40
2023-03-07T00:24:02.957Z,5.40
2023-03-07T00:29:07.608Z,5.50
2023-03-07T00:34:09.667Z,5.60
2023-03-07T00:39:11.936Z,5.70
2023-03-07T00:44:14.028Z,5.70
2023-03-07T00:49:16.164Z,5.70
2023-03-07T00:54:18.542Z,5.70
2023-03-07T00:59:20.716Z,5.60
2023-03-07T01:04:22.884Z,5.60
2023-03-07T01:09:25.108Z,5.60
2023-03-07T01:14:27.271Z,5.50
2023-03-07T01:19:29.424Z,5.50
2023-03-07T01:24:31.502Z,5.40
2023-03-07T01:29:33.792Z,5.40
2023-03-07T01:34:36.816Z,5.40
2023-03-07T01:39:38.875Z,5.40
2023-03-07T01:45:07.769Z,5.40
2023-03-07T01:50:22.196Z,5.40
2023-03-07T01:55:32.912Z,5.40
2023-03-07T02:00:45.077Z,5.40
2023-03-07T02:05:50.439Z,5.40
2023-03-07T02:10:52.823Z,5.40
2023-03-07T02:15:56.133Z,5.40
2023-03-07T02:21:12.232Z,5.40
2023-03-07T02:26:23.180Z,5.40
2023-03-07T02:31:25.977Z,5.40
2023-03-07T02:36:34.520Z,5.40
2023-03-07T02:41:50.509Z,5.30
2023-03-07T02:47:01.552Z,5.40
2023-03-07T02:52:04.922Z,5.40
2023-03-07T02:57:07.641Z,5.40
2023-03-07T03:02:10.104Z,5.40
2023-03-07T03:07:12.324Z,5.40
2023-03-07T03:12:14.458Z,5.40
2023-03-07T03:17:17.847Z,5.40
2023-03-07T03:22:20.638Z,5.50
2023-03-07T03:27:24.913Z,5.50
2023-03-07T03:32:27.901Z,5.50
2023-03-07T03:37:31.570Z,5.50
2023-03-07T03:42:34.167Z,5.50
2023-03-07T03:47:38.463Z,5.50
2023-03-07T03:52:40.998Z,5.50
2023-03-07T03:57:44.490Z,5.60
2023-03-07T04:02:47.405Z,5.60
2023-03-07T04:07:52.881Z,5.60
2023-03-07T04:12:55.716Z,5.60
2023-03-07T04:17:57.931Z,5.60
2023-03-07T04:23:00.262Z,5.60
2023-03-07T04:28:02.900Z,5.60
2023-03-07T04:33:05.441Z,5.70
2023-03-07T04:38:08.072Z,5.70
2023-03-07T04:43:10.581Z,5.70
2023-03-07T04:48:14.122Z,5.70
2023-03-07T04:53:18.827Z,5.60
2023-03-07T04:58:22.169Z,5.70
2023-03-07T05:03:26.285Z,5.70
2023-03-07T05:08:29.415Z,5.70
2023-03-07T05:13:32.825Z,5.70
2023-03-07T05:18:35.241Z,5.60
2023-03-07T05:23:38.024Z,5.70
2023-03-07T05:28:40.285Z,5.70
2023-03-07T05:33:43.185Z,5.70
2023-03-07T05:38:46.250Z,5.60
2023-03-07T05:43:48.557Z,5.60
2023-03-07T05:48:50.922Z,5.60
2023-03-07T05:53:53.140Z,5.60
2023-03-07T05:58:55.897Z,5.60
2023-03-07T06:03:58.359Z,5.60
2023-03-07T06:09:00.521Z,5.60
2023-03-07T06:14:03.116Z,5.60
2023-03-07T06:19:05.377Z,5.60
2023-03-07T06:24:08.012Z,5.60
2023-03-07T06:29:10.166Z,5.60
2023-03-07T06:34:13.004Z,5.70
2023-03-07T06:39:20.967Z,5.80
2023-03-07T06:44:25.159Z,5.80
2023-03-07T06:49:27.842Z,5.80
2023-03-07T06:54:30.109Z,5.90
2023-03-07T06:59:32.236Z,5.90
2023-03-07T07:04:34.531Z,6.00
2023-03-07T07:09:37.480Z,6.10
2023-03-07T07:14:39.874Z,6.20
2023-03-07T07:19:42.231Z,6.10
2023-03-07T07:24:44.583Z,6.10
2023-03-07T07:29:47.088Z,6.00
2023-03-07T07:34:49.830Z,6.00
2023-03-07T07:39:52.480Z,6.00
2023-03-07T07:44:54.756Z,6.00
2023-03-07T07:49:56.980Z,6.00
2023-03-07T07:54:59.335Z,6.10
2023-03-07T08:00:04.387Z,6.10
2023-03-07T08:05:14.202Z,6.20
2023-03-07T08:10:17.740Z,6.30
2023-03-07T08:15:21.751Z,6.40
2023-03-07T08:20:25.722Z,6.40
2023-03-07T08:25:27.796Z,6.40
2023-03-07T08:30:32.436Z,6.50
2023-03-07T08:35:34.570Z,6.50
2023-03-07T08:40:36.681Z,6.50
2023-03-07T08:45:40.601Z,6.50
2023-03-07T08:50:42.677Z,6.60
2023-03-07T08:55:44.831Z,6.70
2023-03-07T09:00:46.940Z,6.90
2023-03-07T09:05:49.260Z,7.00
2023-03-07T09:10:51.455Z,7.10
2023-03-07T09:15:54.577Z,7.30
2023-03-07T09:20:59.862Z,7.40
2023-03-07T09:26:03.405Z,7.50
2023-03-07T09:31:10.235Z,7.50
2023-03-07T09:36:13.476Z,7.70
2023-03-07T09:41:33.969Z,7.70
2023-03-07T09:46:47.653Z,7.70
2023-03-07T09:51:53.109Z,7.80
2023-03-07T09:56:59.133Z,7.80
2023-03-07T10:02:32.178Z,7.80
2023-03-07T10:07:35.712Z,7.80
2023-03-07T10:13:04.866Z,7.60
2023-03-07T10:18:21.605Z,7.70
2023-03-07T10:23:26.572Z,8.00
2023-03-07T10:28:36.494Z,8.20
2023-03-07T10:33:41.051Z,8.20
2023-03-07T10:39:16.644Z,8.10
2023-03-07T10:44:20.658Z,8.30
2023-03-07T10:49:31.590Z,8.70
2023-03-07T10:54:36.273Z,8.90
2023-03-07T10:59:40.892Z,8.60
2023-03-07T11:04:46.799Z,8.40
2023-03-07T11:09:48.937Z,8.30
2023-03-07T11:14:52.177Z,8.80
2023-03-07T11:19:58.316Z,9.30
2023-03-07T11:25:06.239Z,9.30
2023-03-07T11:30:18.963Z,9.40
2023-03-07T11:35:31.046Z,9.30
2023-03-07T11:40:47.120Z,9.40
2023-03-07T11:46:27.980Z,9.30
2023-03-07T11:51:59.597Z,9.20
2023-03-07T11:57:31.830Z,9.10
2023-03-07T12:03:07.827Z,9.20
2023-03-07T12:08:28.848Z,9.30
2023-03-07T12:14:09.816Z,9.40
2023-03-07T12:19:20.701Z,9.50
2023-03-07T12:24:31.522Z,9.60
2023-03-07T12:29:38.670Z,9.60
2023-03-07T12:34:46.346Z,9.30
2023-03-07T12:40:10.281Z,9.10
2023-03-07T12:45:18.695Z,8.90
2023-03-07T12:50:31.385Z,8.80
2023-03-07T12:55:41.457Z,8.90
2023-03-07T13:00:56.163Z,8.90
2023-03-07T13:05:58.518Z,8.90
2023-03-07T13:11:00.598Z,8.80
2023-03-07T13:16:04.997Z,8.80
2023-03-07T13:21:33.259Z,8.80
2023-03-07T13:26:35.519Z,8.70
2023-03-07T13:31:42.938Z,8.50
2023-03-07T13:36:45.199Z,8.50
2023-03-07T13:41:50.260Z,8.50
2023-03-07T13:46:55.782Z,8.50
2023-03-07T13:52:22.406Z,8.60
2023-03-07T13:57:30.910Z,8.60
2023-03-07T14:02:35.057Z,8.70
2023-03-07T14:07:41.273Z,8.60
2023-03-07T14:13:05.639Z,8.50
2023-03-07T14:18:26.346Z,8.50
2023-03-07T14:24:02.870Z,8.40
2023-03-07T14:29:24.617Z,8.50
2023-03-07T14:34:32.262Z,8.50
2023-03-07T14:39:54.793Z,8.50
2023-03-07T14:45:08.889Z,8.40
2023-03-07T14:50:19.027Z,8.40
2023-03-07T14:55:25.054Z,8.30
2023-03-07T15:00:28.960Z,8.30
2023-03-07T15:05:32.457Z,8.30
2023-03-07T15:10:41.917Z,8.40
2023-03-07T15:15:48.976Z,8.30
2023-03-07T15:20:53.424Z,8.30
2023-03-07T15:26:21.118Z,8.30
2023-03-07T15:31:23.622Z,8.30
2023-03-07T15:36:26.691Z,8.30
2023-03-07T15:41:36.989Z,8.40
2023-03-07T15:47:01.049Z,8.40
2023-03-07T15:52:04.210Z,8.60
2023-03-07T15:57:16.334Z,8.80
2023-03-07T16:02:39.955Z,8.90
2023-03-07T16:07:42.069Z,9.10
2023-03-07T16:12:46.588Z,9.30
2023-03-07T16:17:55.065Z,9.30
2023-03-07T16:22:57.945Z,9.40
2023-03-07T16:28:00.574Z,9.30
2023-03-07T16:33:02.709Z,9.30
2023-03-07T16:38:05.070Z,9.30
2023-03-07T16:43:33.560Z,9.20
2023-03-07T16:48:36.292Z,9.20
2023-03-07T16:53:38.370Z,9.10
2023-03-07T16:58:42.444Z,9.10
2023-03-07T17:03:46.173Z,9.00
2023-03-07T17:08:50.833Z,9.00
2023-03-07T17:13:55.660Z,8.90
2023-03-07T17:18:58.377Z,8.90
2023-03-07T17:24:00.474Z,8.90
2023-03-07T17:29:08.177Z,8.90
2023-03-07T17:34:22.025Z,8.90
2023-03-07T17:39:24.744Z,8.90
2023-03-07T17:44:28.001Z,8.80
2023-03-07T17:49:35.202Z,8.80
2023-03-07T17:54:37.331Z,8.80
2023-03-07T17:59:39.427Z,8.70
2023-03-07T18:04:41.979Z,8.70
2023-03-07T18:09:44.337Z,8.70
2023-03-07T18:14:46.626Z,8.70
2023-03-07T18:19:48.710Z,8.70
2023-03-07T18:24:53.673Z,8.70
2023-03-07T18:29:56.368Z,8.80
2023-03-07T18:34:58.585Z,8.80
2023-03-07T18:40:00.720Z,8.80
2023-03-07T18:45:02.853Z,8.80
2023-03-07T18:50:05.759Z,8.80
2023-03-07T18:55:08.212Z,8.80
2023-03-07T19:00:11.475Z,8.80
2023-03-07T19:05:13.658Z,8.80
2023-03-07T19:10:15.815Z,8.80
2023-03-07T19:15:18.002Z,8.90
2023-03-07T19:20:20.176Z,8.90
2023-03-07T19:25:22.415Z,8.90
2023-03-07T19:30:24.503Z,8.90
2023-03-07T19:35:26.586Z,8.90
2023-03-07T19:40:28.673Z,8.90
2023-03-07T19:45:30.734Z,8.90
2023-03-07T19:50:32.817Z,8.90
2023-03-07T19:55:34.947Z,9.10
2023-03-07T20:00:42.585Z,9.30
2023-03-07T20:05:48.284Z,9.40
2023-03-07T20:10:58.049Z,9.50
2023-03-07T20:16:09.956Z,9.60
2023-03-07T20:21:14.347Z,9.60
2023-03-07T20:26:25.100Z,9.60
2023-03-07T20:31:28.064Z,9.60
2023-03-07T20:36:33.217Z,9.50
2023-03-07T20:41:35.449Z,9.50
2023-03-07T20:46:38.726Z,9.50
2023-03-07T20:51:43.473Z,9.50
2023-03-07T20:56:46.954Z,9.50
2023-03-07T21:01:49.292Z,9.50
2023-03-07T21:06:51.461Z,9.50
2023-03-07T21:11:53.517Z,9.50
2023-03-07T21:16:55.603Z,9.50
2023-03-07T21:21:58.977Z,9.40
2023-03-07T21:27:01.086Z,9.40
2023-03-07T21:32:03.321Z,9.40
2023-03-07T21:37:05.396Z,9.30
2023-03-07T21:42:07.461Z,9.20
2023-03-07T21:47:09.567Z,9.20
2023-03-07T21:52:11.656Z,9.10
2023-03-07T21:57:13.767Z,9.10
2023-03-07T22:02:16.040Z,9.00
2023-03-07T22:07:18.575Z,9.00
2023-03-07T22:12:20.610Z,9.00
2023-03-07T22:17:22.864Z,8.90
2023-03-07T22:22:24.945Z,8.90
2023-03-07T22:27:27.002Z,8.80
2023-03-07T22:32:29.114Z,8.90
2023-03-07T22:37:31.191Z,8.90
2023-03-07T22:42:33.771Z,8.80
2023-03-07T22:47:35.834Z,8.80
2023-03-07T22:52:37.921Z,8.80
2023-03-07T22:57:40.003Z,8.70
2023-03-07T23:02:42.144Z,8.70
2023-03-07T23:07:44.253Z,8.70
2023-03-07T23:12:50.051Z,8.60
2023-03-07T23:17:52.372Z,8.60
2023-03-07T23:22:54.527Z,8.50
2023-03-07T23:27:57.822Z,8.50
2023-03-07T23:32:59.856Z,8.40
2023-03-07T23:38:02.215Z,8.40
2023-03-07T23:43:04.300Z,8.40
2023-03-07T23:48:06.667Z,8.50
2023-03-07T23:53:08.706Z,8.50
2023-03-07T23:58:10.826Z,8.50
